French Creek, West Virginia
Current Conditions -  °F | °C
As of 9:15 AM on Thursday 29 Jan 2015 (Local Time) from KW22 Reporting Station
Clear Clear  
Wind Chill: -2°   Ceiling: Unl
Heat Index:   Visibility: 10mi
Dew Point: -10°   Wind: 7mph
Humidity: 44%   Direction: 170°S
Pressure: 30"   Gusts: NA
Location:  38.89°N, 80.3°W
Report Text: KW22 291415Z AUTO 17006KT 10SM CLR 01/M10 A3000 RMK AO2
Loading
Personal Weather Stations






























Interactive Weather Map New forecast layout! Learn more

10-Day Weather Forecast

Advertisements
Track Severe Weather on mobile